createdAt,value
2019-05-29T00:00:16.620Z,99.90
2019-05-29T00:02:45.312Z,99.90
2019-05-29T00:05:14.336Z,99.90
2019-05-29T00:07:43.247Z,99.90
2019-05-29T00:10:12.364Z,99.90
2019-05-29T00:12:41.112Z,99.90
2019-05-29T00:15:10.396Z,99.90
2019-05-29T00:17:39.185Z,99.90
2019-05-29T00:20:08.286Z,99.90
2019-05-29T00:22:37.108Z,99.90
2019-05-29T00:25:06.735Z,99.90
2019-05-29T00:27:35.465Z,99.90
2019-05-29T00:30:06.816Z,99.90
2019-05-29T00:32:36.072Z,99.90
2019-05-29T00:35:08.390Z,99.90
2019-05-29T00:37:37.100Z,99.90
2019-05-29T00:40:08.761Z,99.90
2019-05-29T00:42:37.658Z,99.90
2019-05-29T00:45:09.522Z,99.90
2019-05-29T00:47:38.408Z,99.90
2019-05-29T00:50:08.268Z,99.90
2019-05-29T00:52:36.988Z,99.90
2019-05-29T00:55:06.711Z,99.90
2019-05-29T00:57:35.436Z,99.90
2019-05-29T01:00:05.970Z,99.90
2019-05-29T01:02:34.760Z,99.90
2019-05-29T01:05:04.489Z,99.90
2019-05-29T01:07:33.236Z,99.90
2019-05-29T01:10:01.906Z,99.90
2019-05-29T01:12:30.620Z,99.90
2019-05-29T01:14:59.276Z,99.90
2019-05-29T01:17:28.001Z,99.90
2019-05-29T01:19:56.729Z,99.90
2019-05-29T01:22:25.459Z,99.90
2019-05-29T01:24:54.151Z,99.90
2019-05-29T01:27:23.157Z,99.90
2019-05-29T01:29:51.917Z,99.90
2019-05-29T01:32:21.591Z,99.90
2019-05-29T01:34:50.504Z,99.90
2019-05-29T01:37:20.233Z,99.90
2019-05-29T01:39:48.980Z,99.90
2019-05-29T01:42:17.688Z,99.90
2019-05-29T01:44:46.414Z,99.90
2019-05-29T01:47:15.370Z,99.90
2019-05-29T01:49:44.120Z,99.90
2019-05-29T01:52:12.837Z,99.90
2019-05-29T01:54:41.503Z,99.90
2019-05-29T01:57:10.220Z,99.90
2019-05-29T01:59:38.978Z,99.90
2019-05-29T02:02:07.700Z,99.90
2019-05-29T02:04:36.347Z,99.90
2019-05-29T02:07:05.480Z,99.90
2019-05-29T02:09:34.199Z,99.90
2019-05-29T02:12:02.947Z,99.90
2019-05-29T02:14:31.604Z,99.90
2019-05-29T02:17:00.327Z,99.90
2019-05-29T02:19:29.056Z,99.90
2019-05-29T02:21:57.783Z,99.90
2019-05-29T02:24:27.448Z,99.90
2019-05-29T02:26:56.267Z,99.90
2019-05-29T02:29:24.965Z,99.90
2019-05-29T02:32:12.930Z,99.90
2019-05-29T02:34:41.653Z,99.90
2019-05-29T02:37:10.405Z,99.90
2019-05-29T02:39:39.100Z,99.90
2019-05-29T02:42:07.801Z,99.90
2019-05-29T02:44:37.366Z,99.90
2019-05-29T02:47:06.093Z,99.90
2019-05-29T02:49:34.755Z,99.90
2019-05-29T02:52:03.480Z,99.90
2019-05-29T02:54:32.519Z,99.90
2019-05-29T02:57:01.261Z,99.90
2019-05-29T02:59:31.759Z,99.90
2019-05-29T03:02:00.213Z,99.90
2019-05-29T03:04:30.255Z,99.90
2019-05-29T03:07:00.037Z,99.90
2019-05-29T03:09:30.523Z,99.90
2019-05-29T03:12:00.389Z,99.90
2019-05-29T03:14:29.772Z,99.90
2019-05-29T03:16:59.793Z,99.90
2019-05-29T03:19:30.160Z,99.90
2019-05-29T03:21:58.881Z,99.90
2019-05-29T03:24:28.670Z,99.90
2019-05-29T03:26:57.377Z,99.90
2019-05-29T03:29:26.554Z,99.90
2019-05-29T03:31:56.400Z,99.90
2019-05-29T03:34:28.513Z,99.90
2019-05-29T03:36:55.429Z,99.90
2019-05-29T03:39:24.255Z,99.90
2019-05-29T03:41:52.842Z,99.90
2019-05-29T03:44:21.561Z,99.90
2019-05-29T03:46:50.217Z,99.90
2019-05-29T03:49:18.937Z,99.90
2019-05-29T03:51:47.664Z,99.90
2019-05-29T03:54:16.384Z,99.90
2019-05-29T03:56:45.044Z,99.90
2019-05-29T03:59:13.713Z,99.90
2019-05-29T04:01:42.377Z,99.90
2019-05-29T04:04:11.041Z,99.90
2019-05-29T04:06:39.783Z,99.90
2019-05-29T04:09:08.501Z,99.90
2019-05-29T04:11:37.808Z,99.90
2019-05-29T04:14:06.991Z,99.90
2019-05-29T04:16:59.825Z,99.90
2019-05-29T04:19:46.696Z,99.90
2019-05-29T04:22:18.390Z,99.90
2019-05-29T04:24:48.178Z,99.90
2019-05-29T04:27:19.704Z,99.90
2019-05-29T04:29:49.190Z,99.90
2019-05-29T04:32:17.908Z,99.90
2019-05-29T04:34:46.667Z,99.90
2019-05-29T04:37:15.384Z,99.90
2019-05-29T04:39:44.032Z,99.90
2019-05-29T04:42:12.688Z,99.90
2019-05-29T04:44:41.507Z,99.90
2019-05-29T04:47:12.208Z,99.90
2019-05-29T04:49:40.629Z,99.90
2019-05-29T04:52:09.280Z,99.90
2019-05-29T04:54:39.977Z,99.90
2019-05-29T04:57:08.304Z,99.90
2019-05-29T04:59:37.172Z,99.90
2019-05-29T05:02:05.765Z,99.90
2019-05-29T05:04:35.196Z,99.90
2019-05-29T05:07:03.959Z,99.90
2019-05-29T05:09:33.342Z,99.90
2019-05-29T05:12:02.252Z,99.90
2019-05-29T05:14:31.486Z,99.90
2019-05-29T05:17:00.696Z,99.90
2019-05-29T05:19:29.700Z,99.90
2019-05-29T05:21:58.581Z,99.90
2019-05-29T05:24:27.240Z,99.90
2019-05-29T05:26:55.969Z,99.90
2019-05-29T05:29:24.832Z,99.90
2019-05-29T05:31:53.684Z,99.90
2019-05-29T05:34:22.576Z,99.90
2019-05-29T05:36:51.447Z,99.90
2019-05-29T05:39:20.306Z,99.90
2019-05-29T05:41:49.164Z,99.90
2019-05-29T05:44:18.011Z,99.90
2019-05-29T05:46:46.871Z,99.90
2019-05-29T05:49:15.748Z,99.90
2019-05-29T05:51:44.816Z,99.90
2019-05-29T05:54:13.576Z,99.90
2019-05-29T05:56:42.234Z,99.90
2019-05-29T05:59:11.167Z,99.90
2019-05-29T06:01:40.129Z,99.90
2019-05-29T06:04:08.842Z,99.90
2019-05-29T06:06:38.135Z,99.90
2019-05-29T06:09:08.452Z,99.90
2019-05-29T06:11:38.225Z,99.90
2019-05-29T06:14:07.118Z,99.90
2019-05-29T06:16:37.022Z,99.90
2019-05-29T06:19:05.826Z,99.90
2019-05-29T06:21:34.628Z,99.90
2019-05-29T06:24:03.356Z,99.90
2019-05-29T06:26:32.778Z,99.90
2019-05-29T06:29:01.568Z,99.90
2019-05-29T06:31:30.298Z,99.90
2019-05-29T06:33:58.961Z,99.90
2019-05-29T06:36:27.684Z,99.90
2019-05-29T06:38:56.515Z,99.90
2019-05-29T06:41:25.156Z,99.90
2019-05-29T06:43:53.845Z,99.90
2019-05-29T06:46:22.514Z,99.90
2019-05-29T06:48:59.401Z,99.90
2019-05-29T06:51:21.536Z,99.90
2019-05-29T06:53:50.270Z,99.90
2019-05-29T06:56:19.045Z,99.90
2019-05-29T06:58:48.489Z,99.90
2019-05-29T07:01:17.421Z,99.90
2019-05-29T07:03:46.152Z,99.90
2019-05-29T07:06:14.874Z,99.90
2019-05-29T07:08:47.923Z,99.90
2019-05-29T07:11:13.975Z,99.90
2019-05-29T07:13:45.327Z,99.90
2019-05-29T07:16:13.014Z,99.90
2019-05-29T07:19:20.615Z,99.90
2019-05-29T07:21:12.106Z,99.90
2019-05-29T07:23:41.225Z,99.90
2019-05-29T07:26:10.076Z,99.90
2019-05-29T07:28:59.826Z,99.90
2019-05-29T07:31:09.203Z,99.90
2019-05-29T07:33:38.935Z,99.90
2019-05-29T07:36:07.648Z,99.90
2019-05-29T07:38:37.617Z,99.90
2019-05-29T07:41:06.444Z,99.90
2019-05-29T07:43:35.180Z,99.90
2019-05-29T07:46:03.910Z,99.90
2019-05-29T07:48:32.570Z,99.90
2019-05-29T07:51:07.091Z,99.90
2019-05-29T07:53:33.696Z,99.90
2019-05-29T07:56:01.962Z,99.40
2019-05-29T07:58:30.704Z,96.90
2019-05-29T08:01:11.619Z,94.90
2019-05-29T08:03:29.891Z,95.30
2019-05-29T08:05:58.628Z,94.20
2019-05-29T08:08:27.383Z,93.20
2019-05-29T08:10:56.051Z,92.80
2019-05-29T08:13:24.708Z,93.00
2019-05-29T08:16:02.376Z,93.10
2019-05-29T08:18:23.816Z,84.40
2019-05-29T08:20:52.532Z,82.30
2019-05-29T08:23:21.192Z,70.40
2019-05-29T08:25:49.950Z,75.50
2019-05-29T08:28:18.604Z,72.30
2019-05-29T08:30:51.731Z,76.70
2019-05-29T08:33:17.644Z,80.70
2019-05-29T08:35:47.189Z,80.90
2019-05-29T08:38:16.668Z,86.30
2019-05-29T08:40:45.400Z,87.80
2019-05-29T08:43:14.165Z,85.20
2019-05-29T08:45:43.491Z,90.00
2019-05-29T08:48:12.384Z,88.60
2019-05-29T08:50:41.546Z,90.50
2019-05-29T08:53:10.357Z,90.40
2019-05-29T08:55:39.087Z,92.10
2019-05-29T08:58:07.879Z,91.90
2019-05-29T09:00:36.659Z,93.30
2019-05-29T09:03:05.447Z,91.70
2019-05-29T09:05:35.566Z,93.60
2019-05-29T09:08:04.293Z,91.40
2019-05-29T09:10:33.023Z,90.30
2019-05-29T09:13:04.881Z,91.50
2019-05-29T09:15:32.066Z,88.50
2019-05-29T09:18:00.748Z,89.10
2019-05-29T09:20:57.182Z,88.90
2019-05-29T09:22:59.816Z,89.00
2019-05-29T09:25:28.530Z,91.40
2019-05-29T09:27:57.185Z,90.80
2019-05-29T09:30:25.912Z,90.20
2019-05-29T09:32:54.569Z,86.10
2019-05-29T09:35:24.742Z,82.50
2019-05-29T09:37:54.160Z,82.60
2019-05-29T09:40:23.150Z,88.30
2019-05-29T09:42:51.889Z,83.10
2019-05-29T09:45:21.565Z,87.90
2019-05-29T09:47:50.419Z,88.60
2019-05-29T09:50:20.939Z,84.50
2019-05-29T09:52:49.790Z,85.90
2019-05-29T09:55:19.295Z,89.20
2019-05-29T09:57:48.018Z,87.70
2019-05-29T10:00:17.406Z,87.90
2019-05-29T10:02:46.062Z,90.80
2019-05-29T10:05:15.460Z,88.80
2019-05-29T10:07:44.185Z,83.20
2019-05-29T10:10:14.504Z,81.30
2019-05-29T10:12:43.225Z,75.00
2019-05-29T10:15:13.351Z,78.30
2019-05-29T10:17:42.069Z,75.80
2019-05-29T10:20:13.525Z,78.70
2019-05-29T10:22:42.237Z,76.60
2019-05-29T10:25:11.122Z,79.40
2019-05-29T10:27:39.838Z,75.00
2019-05-29T10:30:09.366Z,75.50
2019-05-29T10:32:38.123Z,79.60
2019-05-29T10:35:07.585Z,75.10
2019-05-29T10:37:36.334Z,73.40
2019-05-29T10:40:11.037Z,80.10
2019-05-29T10:42:39.691Z,84.70
2019-05-29T10:45:10.450Z,87.40
2019-05-29T10:47:39.249Z,89.00
2019-05-29T10:50:09.846Z,91.60
2019-05-29T10:52:38.727Z,93.10
2019-05-29T10:55:08.844Z,91.80
2019-05-29T10:57:37.576Z,93.40
2019-05-29T11:00:08.565Z,94.30
2019-05-29T11:02:37.291Z,95.00
2019-05-29T11:05:06.738Z,96.70
2019-05-29T11:07:35.528Z,96.90
2019-05-29T11:10:05.953Z,98.10
2019-05-29T11:12:34.679Z,97.40
2019-05-29T11:15:20.389Z,98.80
2019-05-29T11:17:34.484Z,99.90
2019-05-29T11:20:04.773Z,99.90
2019-05-29T11:22:33.462Z,99.90
2019-05-29T11:25:20.943Z,99.90
2019-05-29T11:27:32.505Z,99.10
2019-05-29T11:30:01.228Z,99.90
2019-05-29T11:32:29.949Z,99.90
2019-05-29T11:34:59.695Z,99.90
2019-05-29T11:37:28.510Z,99.90
2019-05-29T11:39:57.268Z,99.30
2019-05-29T11:42:27.901Z,99.30
2019-05-29T11:44:56.950Z,99.70
2019-05-29T11:47:25.673Z,98.30
2019-05-29T11:49:55.142Z,99.60
2019-05-29T11:52:25.196Z,99.90
2019-05-29T11:54:59.145Z,99.90
2019-05-29T11:57:25.547Z,99.90
2019-05-29T11:59:54.195Z,98.50
2019-05-29T12:02:22.865Z,98.10
2019-05-29T12:04:51.496Z,99.90
2019-05-29T12:07:20.162Z,99.90
2019-05-29T12:09:48.826Z,99.40
2019-05-29T12:12:17.477Z,99.90
2019-05-29T12:15:00.581Z,99.90
2019-05-29T12:17:16.478Z,99.90
2019-05-29T12:19:45.188Z,99.60
2019-05-29T12:22:13.874Z,99.10
2019-05-29T12:24:42.624Z,99.80
2019-05-29T12:27:11.347Z,99.90
2019-05-29T12:29:40.000Z,99.90
2019-05-29T12:32:10.724Z,99.90
2019-05-29T12:34:52.798Z,99.90
2019-05-29T12:37:09.434Z,99.90
2019-05-29T12:39:38.100Z,99.90
2019-05-29T12:42:06.917Z,99.90
2019-05-29T12:44:35.646Z,99.90
2019-05-29T12:47:04.545Z,99.90
2019-05-29T12:49:33.312Z,99.90
2019-05-29T12:52:02.511Z,99.90
2019-05-29T12:54:32.367Z,99.90
2019-05-29T12:57:02.297Z,99.90
2019-05-29T12:59:31.223Z,99.90
2019-05-29T13:02:00.569Z,99.90
2019-05-29T13:04:29.289Z,99.50
2019-05-29T13:06:58.646Z,98.10
2019-05-29T13:09:27.482Z,97.80
2019-05-29T13:11:56.538Z,98.30
2019-05-29T13:14:25.325Z,99.00
2019-05-29T13:16:54.717Z,99.20
2019-05-29T13:19:23.467Z,99.90
2019-05-29T13:21:55.128Z,99.90
2019-05-29T13:24:23.876Z,99.90
2019-05-29T13:26:52.604Z,99.90
2019-05-29T13:29:21.323Z,99.90
2019-05-29T13:31:49.986Z,99.90
2019-05-29T13:34:18.715Z,99.90
2019-05-29T13:36:47.549Z,99.90
2019-05-29T13:39:16.501Z,99.90
2019-05-29T13:41:46.747Z,99.90
2019-05-29T13:44:15.399Z,99.90
2019-05-29T13:46:44.121Z,99.90
2019-05-29T13:49:14.327Z,99.90
2019-05-29T13:51:43.025Z,99.90
2019-05-29T13:54:17.502Z,99.90
2019-05-29T13:56:43.077Z,99.90
2019-05-29T13:59:11.822Z,99.90
2019-05-29T14:01:42.155Z,99.90
2019-05-29T14:04:11.017Z,99.90
2019-05-29T14:06:39.801Z,99.90
2019-05-29T14:09:10.214Z,99.90
2019-05-29T14:11:39.010Z,99.90
2019-05-29T14:14:19.817Z,99.90
2019-05-29T14:16:49.933Z,99.90
2019-05-29T14:19:18.657Z,97.50
2019-05-29T14:22:07.071Z,98.70
2019-05-29T14:24:35.897Z,95.60
2019-05-29T14:27:05.473Z,95.10
2019-05-29T14:29:34.270Z,96.50
2019-05-29T14:32:03.112Z,96.20
2019-05-29T14:34:31.835Z,95.60
2019-05-29T14:37:03.209Z,94.70
2019-05-29T14:39:30.932Z,94.80
2019-05-29T14:41:59.716Z,94.90
2019-05-29T14:44:28.449Z,95.70
2019-05-29T14:46:57.516Z,95.60
2019-05-29T14:49:27.118Z,96.00
2019-05-29T14:51:56.219Z,95.80
2019-05-29T14:54:41.189Z,96.20
2019-05-29T14:57:00.713Z,95.60
2019-05-29T14:59:29.635Z,96.60
2019-05-29T15:02:24.408Z,97.00
2019-05-29T15:05:00.038Z,96.90
2019-05-29T15:10:26.828Z,97.70
2019-05-29T15:12:49.841Z,97.00
2019-05-29T15:15:21.412Z,96.70
2019-05-29T15:17:50.197Z,97.70
2019-05-29T15:20:19.300Z,97.90
2019-05-29T15:22:47.948Z,98.20
2019-05-29T15:25:23.959Z,98.80
2019-05-29T15:27:48.541Z,97.20
2019-05-29T15:30:22.246Z,98.10
2019-05-29T15:32:48.336Z,97.40
2019-05-29T15:35:19.951Z,97.10
2019-05-29T15:37:49.610Z,98.20
2019-05-29T15:40:18.479Z,96.60
2019-05-29T15:42:47.174Z,96.60
2019-05-29T15:45:18.029Z,97.70
2019-05-29T15:47:46.963Z,97.30
2019-05-29T15:50:16.527Z,97.50
2019-05-29T15:52:46.377Z,97.20
2019-05-29T15:55:28.199Z,97.80
2019-05-29T15:57:48.723Z,96.10
2019-05-29T16:00:17.851Z,97.10
2019-05-29T16:05:38.916Z,97.30
2019-05-29T16:08:08.025Z,96.70
2019-05-29T16:10:36.861Z,96.60
2019-05-29T16:13:05.656Z,96.90
2019-05-29T16:15:34.449Z,96.60
2019-05-29T16:19:00.464Z,96.80
2019-05-29T16:24:02.274Z,97.60
2019-05-29T16:29:29.777Z,96.90
2019-05-29T16:31:58.281Z,97.90
2019-05-29T16:34:26.966Z,96.90
2019-05-29T16:36:55.626Z,97.70
2019-05-29T16:39:24.498Z,96.90
2019-05-29T16:41:53.136Z,98.20
2019-05-29T16:44:27.344Z,96.50
2019-05-29T16:46:52.320Z,97.10
2019-05-29T16:49:21.374Z,97.00
2019-05-29T16:51:50.274Z,97.30
2019-05-29T16:54:19.207Z,97.60
2019-05-29T16:56:48.418Z,96.70
2019-05-29T16:59:19.224Z,96.40
2019-05-29T17:01:48.061Z,95.70
2019-05-29T17:04:17.685Z,95.60
2019-05-29T17:06:46.466Z,96.40
2019-05-29T17:09:16.336Z,95.40
2019-05-29T17:11:45.254Z,96.50
2019-05-29T17:14:14.387Z,95.90
2019-05-29T17:16:43.284Z,95.80
2019-05-29T17:19:12.421Z,95.40
2019-05-29T17:21:41.240Z,96.00
2019-05-29T17:24:10.013Z,95.30
2019-05-29T17:26:38.805Z,94.80
2019-05-29T17:29:07.591Z,94.40
2019-05-29T17:31:36.400Z,94.50
2019-05-29T17:34:05.307Z,94.40
2019-05-29T17:36:34.045Z,95.50
2019-05-29T17:39:03.351Z,95.30
2019-05-29T17:41:32.133Z,95.60
2019-05-29T17:44:02.289Z,95.50
2019-05-29T17:46:30.949Z,95.20
2019-05-29T17:48:59.732Z,96.00
2019-05-29T17:51:28.461Z,95.90
2019-05-29T17:53:57.323Z,95.60
2019-05-29T17:56:36.907Z,96.10
2019-05-29T17:59:06.006Z,95.40
2019-05-29T18:01:34.806Z,95.50
2019-05-29T18:04:03.538Z,96.30
2019-05-29T18:06:32.353Z,96.70
2019-05-29T18:09:01.113Z,96.70
2019-05-29T18:11:29.822Z,95.80
2019-05-29T18:14:01.952Z,94.70
2019-05-29T18:16:28.844Z,95.30
2019-05-29T18:18:57.575Z,95.20
2019-05-29T18:21:26.320Z,95.90
2019-05-29T18:23:55.039Z,95.50
2019-05-29T18:26:24.249Z,95.90
2019-05-29T18:28:53.209Z,96.20
2019-05-29T18:31:22.549Z,96.00
2019-05-29T18:33:51.456Z,96.80
2019-05-29T18:36:20.992Z,96.60
2019-05-29T18:38:49.830Z,96.60
2019-05-29T18:41:18.635Z,96.50
2019-05-29T18:43:47.485Z,96.90
2019-05-29T18:46:38.219Z,96.20
2019-05-29T18:49:07.145Z,95.40
2019-05-29T18:51:35.860Z,95.10
2019-05-29T18:54:04.586Z,94.60
2019-05-29T18:56:33.384Z,94.40
2019-05-29T18:59:02.107Z,94.60
2019-05-29T19:01:31.740Z,93.80
2019-05-29T19:04:04.809Z,94.00
2019-05-29T19:06:33.529Z,94.00
2019-05-29T19:09:02.925Z,94.00
2019-05-29T19:11:32.023Z,93.90
2019-05-29T19:14:00.728Z,94.50
2019-05-29T19:16:30.025Z,94.10
2019-05-29T19:18:58.843Z,94.40
2019-05-29T19:21:28.394Z,95.10
2019-05-29T19:23:57.415Z,95.70
2019-05-29T19:26:26.659Z,95.70
2019-05-29T19:28:58.192Z,96.40
2019-05-29T19:31:27.146Z,96.60
2019-05-29T19:33:55.960Z,97.00
2019-05-29T19:36:25.575Z,96.80
2019-05-29T19:38:54.344Z,96.80
2019-05-29T19:41:23.911Z,97.40
2019-05-29T19:43:52.859Z,97.40
2019-05-29T19:46:21.601Z,97.20
2019-05-29T19:48:50.386Z,97.50
2019-05-29T19:51:19.117Z,98.00
2019-05-29T19:53:47.842Z,98.00
2019-05-29T19:56:16.488Z,98.10
2019-05-29T19:58:45.209Z,98.50
2019-05-29T20:01:28.032Z,99.00
2019-05-29T20:03:44.430Z,99.70
2019-05-29T20:06:13.143Z,99.90
2019-05-29T20:08:41.882Z,99.90
2019-05-29T20:11:10.600Z,99.90
2019-05-29T20:13:39.326Z,99.90
2019-05-29T20:16:08.157Z,99.90
2019-05-29T20:18:36.913Z,99.90
2019-05-29T20:21:05.633Z,99.90
2019-05-29T20:23:34.625Z,99.90
2019-05-29T20:26:03.468Z,99.90
2019-05-29T20:28:32.169Z,99.90
2019-05-29T20:31:00.813Z,99.90
2019-05-29T20:33:30.375Z,99.90
2019-05-29T20:35:59.273Z,99.90
2019-05-29T20:38:27.993Z,99.90
2019-05-29T20:40:56.632Z,99.90
2019-05-29T20:43:25.668Z,99.90
2019-05-29T20:45:54.483Z,99.90
2019-05-29T20:48:23.201Z,99.90
2019-05-29T20:50:51.839Z,99.90
2019-05-29T20:53:20.605Z,99.90
2019-05-29T20:55:49.312Z,99.90
2019-05-29T20:58:24.690Z,99.90
2019-05-29T21:00:48.541Z,99.90
2019-05-29T21:03:17.252Z,99.90
2019-05-29T21:05:45.926Z,99.90
2019-05-29T21:08:14.644Z,99.90
2019-05-29T21:10:43.658Z,99.90
2019-05-29T21:13:12.523Z,99.90
2019-05-29T21:15:41.837Z,99.90
2019-05-29T21:18:10.667Z,99.90
2019-05-29T21:20:40.436Z,99.90
2019-05-29T21:23:09.212Z,99.90
2019-05-29T21:25:38.692Z,99.90
2019-05-29T21:28:07.572Z,99.90
2019-05-29T21:30:37.393Z,99.90
2019-05-29T21:33:06.212Z,99.90
2019-05-29T21:35:36.005Z,99.90
2019-05-29T21:38:04.750Z,99.90
2019-05-29T21:40:33.500Z,99.90
2019-05-29T21:43:02.230Z,99.90
2019-05-29T21:45:30.940Z,99.90
2019-05-29T21:47:59.655Z,99.90
2019-05-29T21:50:28.364Z,99.90
2019-05-29T21:52:57.053Z,99.90
2019-05-29T21:55:25.762Z,99.90
2019-05-29T21:57:54.409Z,99.90
2019-05-29T22:00:31.291Z,99.90
2019-05-29T22:02:59.914Z,99.90
2019-05-29T22:05:28.630Z,99.90
2019-05-29T22:07:57.446Z,99.90
2019-05-29T22:10:26.411Z,99.90
2019-05-29T22:12:56.471Z,99.90
2019-05-29T22:15:25.265Z,99.90
2019-05-29T22:17:54.939Z,99.90
2019-05-29T22:20:23.801Z,99.90
2019-05-29T22:22:53.086Z,99.90
2019-05-29T22:25:21.844Z,99.90
2019-05-29T22:27:51.245Z,99.90
2019-05-29T22:30:21.572Z,99.90
2019-05-29T22:32:51.215Z,99.90
2019-05-29T22:35:20.136Z,99.90
2019-05-29T22:37:48.778Z,99.90
2019-05-29T22:40:17.588Z,99.90
2019-05-29T22:42:46.314Z,99.90
2019-05-29T22:45:15.132Z,99.90
2019-05-29T22:47:43.884Z,99.90
2019-05-29T22:50:12.624Z,99.90
2019-05-29T22:52:41.328Z,99.90
2019-05-29T22:55:10.358Z,99.90
2019-05-29T22:57:39.009Z,99.90
2019-05-29T23:00:10.001Z,99.90
2019-05-29T23:02:38.719Z,99.90
2019-05-29T23:05:08.347Z,99.90
2019-05-29T23:07:37.069Z,99.90
2019-05-29T23:10:07.960Z,99.90
2019-05-29T23:12:36.680Z,99.90
2019-05-29T23:15:07.165Z,99.90
2019-05-29T23:17:35.896Z,99.90
2019-05-29T23:20:06.910Z,99.90
2019-05-29T23:22:35.661Z,99.90
2019-05-29T23:25:05.486Z,99.90
2019-05-29T23:27:34.811Z,99.90
2019-05-29T23:30:05.209Z,99.90
2019-05-29T23:32:33.856Z,99.90
2019-05-29T23:35:03.482Z,99.90
2019-05-29T23:37:32.257Z,99.90
2019-05-29T23:40:01.298Z,99.90
2019-05-29T23:42:30.017Z,99.90
2019-05-29T23:44:59.440Z,99.90
2019-05-29T23:47:28.287Z,99.90
2019-05-29T23:49:57.547Z,99.90
2019-05-29T23:52:26.336Z,99.90
2019-05-29T23:54:55.723Z,99.90
2019-05-29T23:57:24.600Z,99.90
